Time;durP1;ratioP1;P1;durP2;ratioP2;P2;SDS_P1;SDS_P2;PMS_P1;PMS_P2;Temp;Humidity;BMP_temperature;BMP_pressure;BME280_temperature;BME280_humidity;BME280_pressure;Samples;Min_cycle;Max_cycle;Signal;HPM_P1;HPM_P2
2022/06/06 00:01:01;;;;;;;7.67;4.33;;;;;;;18.22;64.58;100550.53;124111;1102;104242;-78
2022/06/06 00:03:34;;;;;;;5.30;4.10;;;;;;;18.21;64.61;100543.43;124221;1102;104166;-77
2022/06/06 00:06:11;;;;;;;6.37;4.30;;;;;;;18.21;64.79;100554.05;124734;1106;104753;-78
2022/06/06 00:08:43;;;;;;;7.13;4.53;;;;;;;18.20;64.60;100546.98;124884;1105;104201;-78
2022/06/06 00:11:14;;;;;;;7.90;4.30;;;;;;;18.20;64.46;100549.64;124823;1103;104506;-78
2022/06/06 00:13:47;;;;;;;6.50;4.40;;;;;;;18.18;64.78;100558.47;124867;1102;104198;-78
2022/06/06 00:16:20;;;;;;;6.93;4.43;;;;;;;18.17;64.58;100557.59;124974;1102;102847;-78
2022/06/06 00:18:51;;;;;;;8.97;4.50;;;;;;;18.18;64.74;100554.04;124911;1102;104235;-78
2022/06/06 00:21:23;;;;;;;7.17;4.63;;;;;;;18.18;64.82;100562.00;124845;1102;104198;-79
2022/06/06 00:23:59;;;;;;;7.30;3.93;;;;;;;18.20;64.97;100549.64;124820;1102;104214;-78
2022/06/06 00:26:33;;;;;;;6.60;4.03;;;;;;;18.21;65.16;100556.71;124751;1105;102319;-78
2022/06/06 00:29:06;;;;;;;6.97;4.27;;;;;;;18.21;65.11;100554.05;124813;1102;104159;-79
2022/06/06 00:37:20;;;;;;;8.13;5.27;;;;;;;18.22;65.11;100552.31;124106;1102;118536;-78
2022/06/06 00:39:52;;;;;;;9.00;4.43;;;;;;;18.22;65.29;100553.19;124156;1102;104258;-78
2022/06/06 00:42:26;;;;;;;6.13;4.10;;;;;;;18.22;65.40;100555.84;124797;1102;104191;-78
2022/06/06 00:45:29;;;;;;;8.87;4.50;;;;;;;18.23;65.19;100557.62;124160;1105;102778;-78
2022/06/06 00:48:11;;;;;;;11.20;4.20;;;;;;;18.22;65.34;100555.84;124772;1105;104168;-78
2022/06/06 00:50:51;;;;;;;6.07;3.80;;;;;;;18.24;65.58;100550.54;124806;1105;102752;-78
2022/06/06 00:53:28;;;;;;;6.97;4.17;;;;;;;18.27;65.45;100554.09;124759;1105;104213;-78
2022/06/06 00:56:07;;;;;;;6.27;3.90;;;;;;;18.30;65.67;100551.45;123735;1105;101851;-78
2022/06/06 00:58:40;;;;;;;9.37;4.30;;;;;;;18.33;65.71;100547.92;124022;1105;111563;-78
2022/06/06 01:01:12;;;;;;;7.53;3.97;;;;;;;18.36;65.41;100555.03;124059;1106;104602;-78
2022/06/06 01:03:43;;;;;;;9.67;4.20;;;;;;;18.36;65.68;100547.06;124038;1105;104423;-78
2022/06/06 01:06:18;;;;;;;11.33;4.57;;;;;;;18.37;65.53;100548.81;124833;1105;104220;-78
2022/06/06 01:08:52;;;;;;;8.03;3.97;;;;;;;18.36;65.64;100555.91;124784;1105;102225;-78
2022/06/06 01:11:25;;;;;;;10.93;4.20;;;;;;;18.36;65.71;100547.06;124500;1105;102031;-78
2022/06/06 01:13:58;;;;;;;13.40;4.37;;;;;;;18.34;65.69;100541.75;124802;1105;104374;-78
2022/06/06 01:16:41;;;;;;;8.17;4.30;;;;;;;18.35;65.49;100539.97;124807;1105;104415;-78
2022/06/06 01:19:46;;;;;;;9.33;4.50;;;;;;;18.35;65.67;100537.31;124751;1105;107028;-78
2022/06/06 01:22:46;;;;;;;10.05;4.80;;;;;;;18.36;65.58;100539.09;124854;1105;104162;-78
2022/06/06 01:25:47;;;;;;;10.73;4.53;;;;;;;18.36;65.71;100536.44;124785;1102;104165;-78
2022/06/06 01:28:44;;;;;;;8.70;4.73;;;;;;;18.35;65.77;100532.00;124218;1102;102820;-78
2022/06/06 01:31:21;;;;;;;11.47;4.30;;;;;;;18.36;65.62;100526.69;124861;1102;102844;-78
2022/06/06 01:33:56;;;;;;;10.30;4.60;;;;;;;18.36;65.89;100532.00;124831;1102;104207;-78
2022/06/06 01:36:33;;;;;;;8.67;4.57;;;;;;;18.35;65.73;100527.56;124899;1102;104283;-78
2022/06/06 01:39:08;;;;;;;8.27;4.37;;;;;;;18.37;65.75;100527.56;124061;1102;104252;-78
2022/06/06 01:41:48;;;;;;;13.63;5.20;;;;;;;18.38;65.94;100524.04;124116;1102;104233;-78
2022/06/06 01:44:25;;;;;;;13.33;4.63;;;;;;;18.39;65.73;100526.70;124873;1102;102814;-78
2022/06/06 01:47:00;;;;;;;11.70;4.30;;;;;;;18.40;65.44;100530.23;124209;1102;102813;-78
2022/06/06 01:49:34;;;;;;;11.43;4.70;;;;;;;18.43;65.82;100527.59;124819;1102;102858;-78
2022/06/06 01:52:08;;;;;;;10.07;4.80;;;;;;;18.46;65.57;100527.61;124806;1105;104245;-78
2022/06/06 01:54:40;;;;;;;10.17;4.80;;;;;;;18.47;65.54;100524.95;124876;1102;102121;-78
2022/06/06 01:57:14;;;;;;;11.37;5.07;;;;;;;18.50;65.58;100529.41;124139;1103;102303;-78
2022/06/06 01:59:48;;;;;;;8.80;4.57;;;;;;;18.52;65.44;100524.97;124833;1102;104264;-78
2022/06/06 02:02:22;;;;;;;8.60;4.58;;;;;;;18.53;65.20;100528.51;124875;1102;104179;-78
2022/06/06 02:04:55;;;;;;;12.47;4.87;;;;;;;18.50;65.81;100527.63;124141;1106;102781;-78
2022/06/06 02:07:29;;;;;;;9.50;4.70;;;;;;;18.50;65.68;100526.75;124088;1102;102761;-78
2022/06/06 02:10:00;;;;;;;;;;;;;;;18.49;65.33;100522.30;124751;1103;120119;-78
2022/06/06 02:12:32;;;;;;;10.45;4.75;;;;;;;18.49;65.33;100520.52;124835;1102;102909;-78
2022/06/06 02:15:06;;;;;;;10.70;4.77;;;;;;;18.48;65.47;100521.42;124117;1102;104165;-78
2022/06/06 02:17:37;;;;;;;10.08;5.10;;;;;;;18.51;65.36;100525.84;124885;1102;104172;-78
2022/06/06 02:20:14;;;;;;;11.13;5.03;;;;;;;18.56;65.30;100518.80;124090;1102;104166;-78
2022/06/06 02:22:47;;;;;;;13.67;4.80;;;;;;;18.60;65.06;100522.34;124156;1102;104335;-78
2022/06/06 02:25:19;;;;;;;10.50;4.72;;;;;;;18.64;64.73;100517.04;124044;1105;104221;-78
2022/06/06 02:27:51;;;;;;;11.03;5.23;;;;;;;18.70;65.12;100524.16;124229;1102;104255;-78
2022/06/06 02:30:25;;;;;;;15.40;5.10;;;;;;;18.73;64.98;100523.26;124066;1102;104156;-78
2022/06/06 02:32:58;;;;;;;9.77;5.07;;;;;;;18.74;64.92;100522.38;124807;1105;104283;-78
2022/06/06 02:35:33;;;;;;;10.00;5.05;;;;;;;18.71;64.82;100527.69;124886;1102;104307;-78
2022/06/06 02:38:05;;;;;;;10.30;4.57;;;;;;;18.70;64.80;100532.13;124111;1103;104235;-78
2022/06/06 02:40:38;;;;;;;8.83;4.70;;;;;;;18.73;64.93;100526.83;124163;1102;104198;-78
2022/06/06 02:43:10;;;;;;;;;;;;;;;18.71;64.71;100530.34;124167;1102;104642;-78
2022/06/06 02:45:46;;;;;;;8.13;4.83;;;;;;;18.72;64.69;100529.48;124827;1105;104252;-78
2022/06/06 02:48:18;;;;;;;11.17;4.80;;;;;;;18.72;64.59;100529.48;124086;1106;104211;-78
2022/06/06 02:50:50;;;;;;;10.10;4.80;;;;;;;18.68;64.60;100528.56;124802;1105;108190;-78
2022/06/06 02:53:22;;;;;;;10.87;4.97;;;;;;;18.65;64.76;100540.09;124133;1102;104615;-78
2022/06/06 02:55:56;;;;;;;8.70;4.60;;;;;;;18.66;64.66;100533.87;124790;1100;104178;-78
2022/06/06 02:58:29;;;;;;;11.05;4.78;;;;;;;18.67;64.31;100538.31;124906;1102;102808;-77
2022/06/06 03:01:05;;;;;;;7.80;4.83;;;;;;;18.66;64.58;100541.84;124910;1102;102817;-78
2022/06/06 03:03:39;;;;;;;9.90;4.97;;;;;;;18.68;64.43;100545.41;124907;1102;104347;-78
2022/06/06 03:06:32;;;;;;;11.70;5.00;;;;;;;18.71;64.05;100546.30;124201;1102;104188;-78
2022/06/06 03:09:15;;;;;;;8.80;4.80;;;;;;;18.73;64.42;100547.17;124130;1102;102107;-78
2022/06/06 03:12:15;;;;;;;9.90;4.90;;;;;;;18.76;63.87;100548.09;124884;1102;102219;-78
2022/06/06 03:15:19;;;;;;;8.57;4.67;;;;;;;18.78;63.89;100551.64;124095;1102;104176;-77
2022/06/06 03:21:12;;;;;;;10.88;4.80;;;;;;;18.79;63.94;100547.20;124899;1102;104297;-78
2022/06/06 03:24:10;;;;;;;12.07;4.67;;;;;;;18.81;63.77;100546.33;124169;1102;104179;-78
2022/06/06 03:26:52;;;;;;;12.63;4.67;;;;;;;18.81;64.05;100550.77;124114;1105;104249;-78
2022/06/06 03:29:39;;;;;;;9.20;4.30;;;;;;;18.83;63.39;100554.31;124142;1102;102043;-79
2022/06/06 03:32:21;;;;;;;10.50;4.60;;;;;;;18.80;63.25;100552.52;124149;1102;107028;-78
2022/06/06 03:35:01;;;;;;;9.47;4.80;;;;;;;18.79;63.41;100550.77;124124;1105;104246;-78
2022/06/06 03:37:42;;;;;;;8.13;4.47;;;;;;;18.78;63.16;100558.73;124120;1102;102174;-78
2022/06/06 03:40:23;;;;;;;7.30;4.83;;;;;;;18.82;63.57;100557.84;124903;1102;104185;-78
2022/06/06 03:43:07;;;;;;;8.63;4.60;;;;;;;18.84;63.22;100567.64;124831;1103;104271;-78
2022/06/06 03:45:45;;;;;;;9.83;4.00;;;;;;;18.88;62.96;100562.33;124773;1105;102740;-78
2022/06/06 03:48:29;;;;;;;9.50;4.20;;;;;;;18.91;63.41;100570.31;124856;1105;102490;-78
2022/06/06 03:51:03;;;;;;;;;;;;;;;18.94;63.18;100571.20;124603;1102;104165;-79
2022/06/06 03:53:47;;;;;;;11.03;4.80;;;;;;;18.95;63.24;100572.98;124912;1102;104166;-78
2022/06/06 03:56:37;;;;;;;8.33;4.90;;;;;;;18.92;62.93;100575.64;124211;1102;102886;-78
2022/06/06 03:59:10;;;;;;;9.17;4.57;;;;;;;18.95;62.82;100575.64;124879;1102;104377;-78
2022/06/06 04:01:43;;;;;;;10.70;4.70;;;;;;;18.95;62.83;100578.30;124876;1102;104269;-79
2022/06/06 04:04:16;;;;;;;10.28;4.67;;;;;;;18.96;62.69;100581.84;124154;1102;104242;-79
2022/06/06 04:06:50;;;;;;;8.28;4.37;;;;;;;18.96;62.30;100581.84;124145;1103;102935;-78
2022/06/06 04:09:22;;;;;;;10.97;4.60;;;;;;;18.97;62.43;100581.84;125006;1102;102078;-78
2022/06/06 04:12:06;;;;;;;10.53;4.40;;;;;;;18.99;62.50;100582.72;124952;1102;104348;-79
2022/06/06 04:14:50;;;;;;;12.47;4.97;;;;;;;18.99;61.99;100574.75;124977;1102;104307;-80
2022/06/06 04:17:34;;;;;;;9.53;4.27;;;;;;;19.01;61.88;100578.32;124950;1102;104197;-79
2022/06/06 04:20:24;;;;;;;8.87;5.00;;;;;;;19.02;62.18;100587.17;124192;1105;101957;-80
2022/06/06 04:23:09;;;;;;;12.50;4.60;;;;;;;19.01;62.33;100586.30;124915;1102;104300;-79
2022/06/06 04:25:53;;;;;;;9.43;4.77;;;;;;;19.01;61.85;100588.95;124935;1102;104634;-78
2022/06/06 04:28:34;;;;;;;9.10;4.77;;;;;;;19.06;61.66;100591.62;124959;1102;104270;-79
2022/06/06 04:31:14;;;;;;;12.43;4.70;;;;;;;19.05;61.61;100584.52;124907;1102;102743;-79
2022/06/06 04:33:57;;;;;;;7.73;4.63;;;;;;;19.06;61.55;100588.97;124972;1102;103021;-79
2022/06/06 04:36:42;;;;;;;7.42;4.70;;;;;;;19.09;61.44;100588.06;124926;1102;104255;-79
2022/06/06 04:39:21;;;;;;;7.00;4.15;;;;;;;19.13;61.36;100593.39;124889;1102;104179;-80
2022/06/06 04:42:01;;;;;;;11.27;4.40;;;;;;;19.19;61.72;100593.41;124945;1105;102096;-79
2022/06/06 04:44:43;;;;;;;9.85;4.60;;;;;;;19.23;61.23;100594.33;124941;1102;104251;-79
2022/06/06 04:47:21;;;;;;;7.30;4.60;;;;;;;19.27;61.50;100597.86;124935;1102;104184;-79
2022/06/06 04:49:56;;;;;;;12.63;4.60;;;;;;;19.32;61.03;100596.09;124907;1105;103239;-79
2022/06/06 04:52:31;;;;;;;7.90;4.10;;;;;;;19.38;60.55;100594.34;124931;1102;104169;-80
2022/06/06 04:55:07;;;;;;;10.93;5.13;;;;;;;19.45;60.69;100595.23;125072;1102;104194;-79
2022/06/06 04:57:43;;;;;;;7.17;4.47;;;;;;;19.52;61.00;100591.66;124992;1101;102744;-78
2022/06/06 05:00:18;;;;;;;7.20;4.57;;;;;;;19.65;60.61;100591.67;124276;1102;104277;-79
2022/06/06 05:02:51;;;;;;;8.25;4.20;;;;;;;19.74;60.66;100607.64;124338;1105;102824;-79
2022/06/06 05:05:25;;;;;;;;;;;;;;;19.81;59.24;100593.48;123894;1105;104316;-78
2022/06/06 05:08:15;;;;;;;7.55;3.98;;;;;;;19.89;59.74;100596.14;124197;1105;104531;-79
2022/06/06 05:11:09;;;;;;;7.23;4.10;;;;;;;20.00;59.52;100607.66;124173;1105;104274;-79
2022/06/06 05:14:01;;;;;;;7.75;4.12;;;;;;;20.02;59.04;100608.53;124318;1105;104332;-78
2022/06/06 05:16:51;;;;;;;7.27;4.10;;;;;;;20.03;58.76;100612.98;124183;1105;104192;-79
2022/06/06 05:19:43;;;;;;;7.33;4.27;;;;;;;20.00;58.56;100617.44;124857;1105;103641;-79
2022/06/06 05:22:43;;;;;;;7.57;4.00;;;;;;;19.99;58.56;100626.30;125054;1105;103070;-79
2022/06/06 05:28:46;;;;;;;8.23;4.33;;;;;;;20.00;58.63;100628.97;124537;1102;103328;-78
2022/06/06 05:31:33;;;;;;;8.10;4.75;;;;;;;20.02;58.40;100635.17;124325;1103;104307;-79
2022/06/06 05:34:15;;;;;;;8.90;4.07;;;;;;;20.04;58.05;100630.75;124491;1102;102928;-80
2022/06/06 05:37:04;;;;;;;5.20;3.70;;;;;;;20.10;58.50;100643.16;124959;1105;102221;-80
2022/06/06 05:39:51;;;;;;;5.63;4.00;;;;;;;20.15;58.49;100632.49;124458;1102;107878;-80
2022/06/06 05:42:34;;;;;;;8.83;4.27;;;;;;;20.20;57.57;100630.73;124380;1105;104242;-79
2022/06/06 05:45:19;;;;;;;8.20;4.40;;;;;;;20.27;58.05;100633.37;125235;1102;104057;-79
2022/06/06 05:48:17;;;;;;;11.70;4.27;;;;;;;20.34;58.47;100626.25;125176;1102;104166;-80
2022/06/06 05:51:12;;;;;;;6.13;4.00;;;;;;;20.47;58.21;100630.67;125370;1102;104245;-80
2022/06/06 05:54:10;;;;;;;6.03;3.93;;;;;;;20.61;57.99;100619.93;125424;1102;103479;-79
2022/06/06 05:57:14;;;;;;;9.27;3.90;;;;;;;20.79;57.83;100619.02;125394;1102;104181;-79
2022/06/06 06:00:16;;;;;;;8.20;4.12;;;;;;;20.99;57.56;100618.05;124614;1102;104454;-80
2022/06/06 06:03:32;;;;;;;4.77;3.80;;;;;;;21.09;57.08;100617.08;125466;1102;104203;-80
2022/06/06 06:06:19;;;;;;;6.67;3.70;;;;;;;21.13;55.80;100609.94;125474;1102;104334;-81
2022/06/06 06:13:01;;;;;;;6.07;3.90;;;;;;;21.45;55.92;100619.53;124769;1102;102992;-78
2022/06/06 06:15:49;;;;;;;6.33;3.77;;;;;;;21.49;55.16;100624.87;125515;1102;102915;-80
2022/06/06 06:18:26;;;;;;;7.37;3.80;;;;;;;21.59;55.75;100627.47;124844;1102;104296;-80
2022/06/06 06:21:10;;;;;;;8.67;3.53;;;;;;;21.68;55.48;100632.74;124610;1102;104232;-79
2022/06/06 06:23:54;;;;;;;5.97;3.50;;;;;;;21.69;53.88;100627.39;124620;1102;102697;-79
2022/06/06 06:26:33;;;;;;;5.23;3.37;;;;;;;21.67;54.28;100633.63;125493;1102;104153;-79
2022/06/06 06:29:10;;;;;;;6.07;3.50;;;;;;;21.69;54.15;100634.49;124785;1102;102670;-78
2022/06/06 06:31:58;;;;;;;5.97;3.60;;;;;;;21.79;53.67;100633.53;126077;1102;103199;-78
2022/06/06 06:34:51;;;;;;;6.47;3.43;;;;;;;21.79;53.98;100636.20;126132;1102;102904;-79
2022/06/06 06:37:44;;;;;;;6.57;3.80;;;;;;;21.89;53.87;100629.89;124488;1102;104355;-79
2022/06/06 06:40:32;;;;;;;7.30;3.33;;;;;;;22.00;52.67;100621.78;124647;1102;107781;-80
2022/06/06 06:43:27;;;;;;;6.97;3.50;;;;;;;22.13;52.82;100625.21;125436;1101;104245;-82
2022/06/06 06:46:12;;;;;;;4.10;3.40;;;;;;;22.20;52.19;100621.55;125355;1102;104160;-79
2022/06/06 06:48:57;;;;;;;5.00;3.37;;;;;;;22.16;51.41;100613.58;125395;1102;102565;-80
2022/06/06 06:51:53;;;;;;;4.60;3.20;;;;;;;22.17;52.24;100618.04;125426;1102;102932;-79
2022/06/06 06:54:57;;;;;;;5.73;3.00;;;;;;;22.17;50.46;100621.59;125416;1101;104238;-81
2022/06/06 06:57:58;;;;;;;6.67;3.40;;;;;;;22.23;51.88;100623.33;125324;1102;102328;-81
2022/06/06 07:00:52;;;;;;;5.00;3.13;;;;;;;22.29;51.29;100627.73;125413;1103;104297;-82
2022/06/06 07:10:15;;;;;;;6.27;3.30;;;;;;;22.56;50.69;100621.20;125370;1102;104169;-79
2022/06/06 07:13:16;;;;;;;4.23;2.93;;;;;;;22.68;50.89;100626.41;125282;1102;101873;-80
2022/06/06 07:16:05;;;;;;;4.87;3.10;;;;;;;22.80;50.50;100620.03;125389;1102;102825;-79
2022/06/06 07:18:44;;;;;;;4.00;3.03;;;;;;;22.82;50.36;100623.56;125373;1102;105082;-82
2022/06/06 07:21:43;;;;;;;6.33;3.27;;;;;;;22.82;48.83;100617.34;125388;1102;102933;-81
2022/06/06 07:24:27;;;;;;;3.10;2.80;;;;;;;22.86;50.12;100625.30;125307;1102;103824;-81
2022/06/06 07:27:09;;;;;;;3.97;2.97;;;;;;;22.97;49.45;100627.84;125377;1102;104110;-81
2022/06/06 07:30:09;;;;;;;5.57;2.87;;;;;;;23.18;49.77;100626.67;125440;1102;103026;-80
2022/06/06 07:33:01;;;;;;;4.80;3.17;;;;;;;23.29;48.86;100629.20;125402;1102;104229;-79
2022/06/06 07:35:48;;;;;;;6.35;2.98;;;;;;;23.46;48.43;100631.62;125585;1101;102819;-81
2022/06/06 07:38:38;;;;;;;5.87;3.67;;;;;;;23.54;47.58;100643.09;125563;1102;104189;-81
2022/06/06 07:41:38;;;;;;;3.53;2.87;;;;;;;23.62;47.40;100634.94;125521;1102;102571;-79
2022/06/06 07:44:24;;;;;;;12.67;3.13;;;;;;;23.72;47.66;100633.89;125415;1102;104223;-80
2022/06/06 07:47:05;;;;;;;3.47;2.97;;;;;;;23.76;46.24;100630.23;124707;1102;102498;-79
2022/06/06 07:49:54;;;;;;;6.20;3.17;;;;;;;23.74;46.92;100631.19;125513;1102;104134;-81
2022/06/06 07:52:42;;;;;;;7.87;3.00;;;;;;;23.95;47.33;100636.22;126076;1102;102187;-82
2022/06/06 07:55:22;;;;;;;6.10;3.03;;;;;;;24.04;45.11;100630.70;125592;1102;102385;-83
2022/06/06 07:58:08;;;;;;;3.47;2.70;;;;;;;24.04;46.23;100630.70;125564;1102;103246;-81
2022/06/06 08:00:47;;;;;;;3.30;2.70;;;;;;;24.27;46.29;100626.69;125413;1102;104083;-81
2022/06/06 08:03:27;;;;;;;6.40;2.70;;;;;;;24.57;45.98;100632.39;125389;1102;104185;-81
2022/06/06 08:06:18;;;;;;;3.37;2.80;;;;;;;24.81;45.49;100625.66;125563;1102;102615;-80
2022/06/06 08:09:29;;;;;;;3.73;2.70;;;;;;;24.83;44.50;100617.57;125486;1102;102779;-80
2022/06/06 08:12:26;;;;;;;6.63;2.77;;;;;;;24.83;44.17;100621.13;125560;1102;104100;-81
2022/06/06 08:15:16;;;;;;;6.25;3.30;;;;;;;24.95;44.98;100617.30;125504;1102;104253;-80
2022/06/06 08:18:04;;;;;;;5.50;2.80;;;;;;;25.28;45.16;100622.83;125611;1102;104242;-80
2022/06/06 08:20:47;;;;;;;10.83;2.90;;;;;;;25.29;41.89;100627.29;125597;1102;104047;-79
2022/06/06 08:23:26;;;;;;;5.37;2.80;;;;;;;25.28;43.10;100614.77;125512;1102;104355;-79
2022/06/06 08:26:00;;;;;;;4.20;2.50;;;;;;;25.39;42.30;100620.80;124616;1103;103024;-79
2022/06/06 08:28:39;;;;;;;5.00;2.37;;;;;;;25.42;42.26;100623.41;125627;1102;104115;-80
2022/06/06 08:31:13;;;;;;;5.20;2.47;;;;;;;25.36;41.99;100620.87;125467;1102;104249;-79
2022/06/06 08:33:50;;;;;;;4.03;2.50;;;;;;;25.32;42.20;100619.16;124731;1102;102588;-81
2022/06/06 08:36:50;;;;;;;3.40;2.57;;;;;;;25.32;41.63;100620.97;125453;1101;104313;-79
2022/06/06 08:39:46;;;;;;;4.33;2.27;;;;;;;25.27;41.36;100621.05;124561;1102;104612;-81
2022/06/06 08:43:05;;;;;;;3.03;2.50;;;;;;;25.22;40.68;100622.97;125437;1102;102387;-81
2022/06/06 08:46:05;;;;;;;3.00;2.60;;;;;;;25.52;41.19;100615.13;125416;1102;109092;-79
2022/06/06 08:52:11;;;;;;;5.00;2.50;;;;;;;25.65;40.45;100630.04;125507;1102;103748;-80
2022/06/06 08:55:05;;;;;;;5.37;2.60;;;;;;;25.75;39.54;100620.81;126166;1102;102170;-78
2022/06/06 08:57:43;;;;;;;;;;;;;;;25.94;39.70;100628.41;124699;1102;118759;-79
2022/06/06 09:00:25;;;;;;;4.33;2.63;;;;;;;26.11;40.84;100615.42;124724;1102;102341;-80
2022/06/06 09:03:25;;;;;;;5.43;2.60;;;;;;;26.28;40.41;100614.09;124749;1102;103780;-80
2022/06/06 09:06:32;;;;;;;3.98;2.55;;;;;;;26.42;40.83;100619.97;125484;1102;103074;-81
2022/06/06 09:09:56;;;;;;;5.37;2.77;;;;;;;26.43;40.60;100623.53;125598;1102;104148;-81
2022/06/06 09:12:57;;;;;;;5.50;2.80;;;;;;;26.37;40.45;100608.46;124511;1102;104632;-81
2022/06/06 09:16:11;;;;;;;6.27;2.83;;;;;;;26.16;40.53;100616.20;124572;1102;104169;-80
2022/06/06 09:19:19;;;;;;;6.17;2.90;;;;;;;26.01;40.54;100614.80;124389;1102;104642;-78
2022/06/06 09:22:21;;;;;;;3.27;2.60;;;;;;;25.88;40.41;100624.06;124351;1105;104341;-79
2022/06/06 09:25:37;;;;;;;7.93;2.60;;;;;;;25.64;39.09;100626.45;125230;1105;104102;-79
2022/06/06 09:28:46;;;;;;;4.77;3.07;;;;;;;25.63;39.77;100629.17;124254;1108;104134;-78
2022/06/06 09:31:51;;;;;;;5.47;2.90;;;;;;;25.64;39.70;100630.95;124091;1109;104205;-80
2022/06/06 09:35:07;;;;;;;3.77;2.80;;;;;;;25.71;39.89;100627.20;124076;1109;102523;-79
2022/06/06 09:38:02;;;;;;;3.47;2.33;;;;;;;25.46;39.39;100626.89;124060;1109;104328;-79
2022/06/06 09:40:54;;;;;;;3.13;2.37;;;;;;;25.19;39.17;100615.86;125268;1109;104399;-79
2022/06/06 09:44:05;;;;;;;8.27;3.20;;;;;;;25.01;39.24;100617.17;124040;1108;104242;-79
2022/06/06 09:47:20;;;;;;;3.20;2.60;;;;;;;24.97;39.54;100618.14;124911;1109;102703;-79
2022/06/06 09:50:42;;;;;;;6.30;2.77;;;;;;;25.06;39.21;100607.20;124038;1109;104068;-80
2022/06/06 09:59:01;;;;;;;7.00;2.60;;;;;;;25.35;39.42;100602.98;124025;1109;104303;-80
2022/06/06 10:00:33;;;;;;;3.03;2.43;;;;;;;25.72;38.77;100607.45;124329;1106;103501;-79
2022/06/06 10:07:09;;;;;;;4.15;2.70;;;;;;;25.88;38.92;100607.93;124217;1109;102745;-79
2022/06/06 10:13:27;;;;;;;5.33;2.80;;;;;;;26.49;38.28;100591.06;124979;1108;102915;-79
2022/06/06 10:16:18;;;;;;;2.83;2.33;;;;;;;26.64;37.96;100597.83;124245;1109;104345;-79
2022/06/06 10:19:31;;;;;;;6.57;2.57;;;;;;;26.77;37.64;100595.67;124444;1105;104140;-80
2022/06/06 10:22:39;;;;;;;2.77;2.30;;;;;;;26.84;37.30;100599.96;125008;1109;102491;-80
2022/06/06 10:33:15;;;;;;;3.27;2.37;;;;;;;26.79;35.10;100597.41;125306;1109;119813;-80
2022/06/06 10:36:12;;;;;;;3.30;2.30;;;;;;;26.93;35.38;100588.01;124781;1109;104306;-80
2022/06/06 10:39:30;;;;;;;2.80;2.17;;;;;;;27.14;35.71;100589.16;124933;1109;102759;-80
2022/06/06 10:42:37;;;;;;;5.30;2.57;;;;;;;27.09;35.52;100578.53;124914;1109;103143;-81
2022/06/06 10:45:32;;;;;;;2.40;2.20;;;;;;;26.86;35.17;100585.50;125260;1105;104166;-79
2022/06/06 10:48:41;;;;;;;2.73;2.33;;;;;;;26.81;35.34;100590.16;125237;1105;102902;-79
2022/06/06 10:51:58;;;;;;;5.93;2.50;;;;;;;26.66;35.07;100585.23;125273;1105;102886;-80
2022/06/06 10:55:19;;;;;;;4.00;2.47;;;;;;;26.51;35.15;100583.86;125235;1106;104249;-80
2022/06/06 10:58:35;;;;;;;6.00;2.33;;;;;;;26.45;35.47;100582.22;125275;1102;102698;-82
2022/06/06 11:01:55;;;;;;;2.83;2.43;;;;;;;26.39;35.18;100586.90;125277;1102;103083;-80
2022/06/06 11:05:17;;;;;;;4.80;2.50;;;;;;;26.22;35.17;100581.99;125461;1102;102652;-81
2022/06/06 11:08:30;;;;;;;7.33;2.40;;;;;;;26.33;34.95;100591.53;125210;1105;102520;-82
2022/06/06 11:11:54;;;;;;;5.07;2.30;;;;;;;26.39;35.06;100579.70;125240;1105;102641;-81
2022/06/06 11:14:39;;;;;;;4.03;2.30;;;;;;;26.55;35.46;100583.72;124934;1101;103292;-81
2022/06/06 11:17:57;;;;;;;10.37;2.83;;;;;;;26.62;35.79;100587.11;124838;1102;102365;-82
2022/06/06 11:24:22;;;;;;;;;;;;;;;;;;;;;
2022/06/06 11:27:40;;;;;;;5.90;2.67;;;;;;;26.35;35.45;100575.32;125283;1102;104121;-80
2022/06/06 11:30:56;;;;;;;9.00;4.77;;;;;;;26.34;35.07;100574.45;125440;1102;103810;-80
2022/06/06 11:34:08;;;;;;;3.43;2.90;;;;;;;26.34;35.29;100573.58;124583;1102;104117;-79
2022/06/06 11:37:22;;;;;;;2.83;2.50;;;;;;;26.37;35.77;100565.42;124773;1102;103385;-79
2022/06/06 11:40:16;;;;;;;;;;;;;;;26.31;35.09;100568.28;124594;1101;102291;-81
2022/06/06 11:43:35;;;;;;;5.83;2.60;;;;;;;26.28;35.29;100568.38;125175;1106;102346;-81
2022/06/06 11:46:40;;;;;;;2.70;2.20;;;;;;;26.30;35.78;100566.52;125372;1106;102380;-81
2022/06/06 11:50:16;;;;;;;3.13;2.20;;;;;;;26.16;35.92;100570.49;125184;1105;104221;-80
2022/06/06 11:53:13;;;;;;;2.40;2.20;;;;;;;25.97;35.86;100566.50;124437;1105;104166;-80
2022/06/06 11:56:28;;;;;;;5.07;2.50;;;;;;;25.91;35.86;100569.34;124771;1105;103004;-81
2022/06/06 11:59:53;;;;;;;4.00;2.50;;;;;;;25.68;35.74;100572.63;124521;1106;103282;-80
2022/06/06 12:02:56;;;;;;;3.40;2.60;;;;;;;25.52;36.21;100567.64;123925;1109;104220;-79
2022/06/06 12:06:16;;;;;;;4.43;2.50;;;;;;;25.47;36.23;100567.77;124447;1105;104136;-81
2022/06/06 12:09:21;;;;;;;5.00;2.30;;;;;;;25.46;36.28;100566.02;124485;1105;104306;-79
2022/06/06 12:12:07;;;;;;;;;;;;;;;25.45;36.55;100564.24;125922;1105;102225;-79
2022/06/06 12:15:24;;;;;;;6.43;2.70;;;;;;;25.47;36.24;100559.70;125101;1106;103239;-78
2022/06/06 12:18:26;;;;;;;3.15;2.60;;;;;;;25.47;36.31;100558.83;124633;1106;102901;-79
2022/06/06 12:21:40;;;;;;;3.07;2.40;;;;;;;25.41;36.80;100564.36;124289;1106;104243;-80
2022/06/06 12:25:08;;;;;;;4.33;3.00;;;;;;;25.23;37.03;100560.30;124165;1105;103913;-80
2022/06/06 12:28:15;;;;;;;5.27;3.00;;;;;;;25.00;36.77;100559.02;124335;1106;104303;-80
2022/06/06 12:31:22;;;;;;;4.03;2.30;;;;;;;24.87;37.40;100562.89;124086;1105;104162;-78
2022/06/06 12:34:26;;;;;;;4.43;2.90;;;;;;;24.72;37.53;100565.01;124119;1105;104364;-79
2022/06/06 12:37:16;;;;;;;5.63;3.00;;;;;;;24.62;37.67;100557.19;124511;1105;102660;-80
2022/06/06 12:40:03;;;;;;;6.77;2.67;;;;;;;24.49;38.04;100564.59;124118;1106;103031;-79
2022/06/06 12:42:49;;;;;;;5.97;2.83;;;;;;;24.40;38.45;100560.28;124421;1105;104816;-79
2022/06/06 12:45:58;;;;;;;4.97;2.70;;;;;;;24.30;38.60;100566.77;124358;1105;102858;-78
2022/06/06 12:49:12;;;;;;;6.47;2.90;;;;;;;24.25;38.63;100560.59;124363;1105;103149;-81
2022/06/06 12:52:24;;;;;;;7.77;3.13;;;;;;;24.20;38.75;100561.59;124552;1105;101895;-79
2022/06/06 12:55:33;;;;;;;5.13;3.13;;;;;;;24.18;38.79;100565.20;124687;1102;104198;-79
2022/06/06 12:58:33;;;;;;;4.40;3.17;;;;;;;24.16;38.87;100564.36;124662;1102;104145;-81
2022/06/06 13:04:29;;;;;;;5.93;3.03;;;;;;;24.15;39.20;100567.94;125414;1102;103051;-79
2022/06/06 13:07:14;;;;;;;4.90;3.00;;;;;;;24.15;39.31;100566.16;124574;1102;102989;-79
2022/06/06 13:10:11;;;;;;;4.30;3.10;;;;;;;24.18;39.32;100568.78;124428;1102;104264;-79
2022/06/06 13:13:06;;;;;;;5.97;2.97;;;;;;;24.16;39.37;100567.03;124579;1102;104379;-80
2022/06/06 13:15:53;;;;;;;5.90;3.30;;;;;;;24.17;39.61;100566.14;124622;1102;104194;-81
2022/06/06 13:18:43;;;;;;;5.73;3.13;;;;;;;24.21;39.74;100557.09;125438;1102;104239;-79
2022/06/06 13:21:26;;;;;;;5.77;3.50;;;;;;;24.29;39.81;100560.50;124479;1102;102606;-78
2022/06/06 13:24:31;;;;;;;6.53;3.30;;;;;;;24.34;40.04;100557.73;124659;1102;104242;-80
2022/06/06 13:30:26;;;;;;;8.07;2.97;;;;;;;24.39;39.74;100556.73;124605;1102;104207;-78
2022/06/06 13:33:21;;;;;;;5.80;3.27;;;;;;;24.42;40.26;100553.11;125915;1102;102910;-78
2022/06/06 13:36:31;;;;;;;6.83;3.40;;;;;;;24.40;40.10;100553.14;125847;1102;102529;-78
2022/06/06 13:39:37;;;;;;;3.43;2.83;;;;;;;24.43;40.60;100551.30;124979;1103;103426;-78
2022/06/06 13:42:29;;;;;;;7.40;3.27;;;;;;;24.46;39.96;100553.92;124350;1102;104172;-79
2022/06/06 13:45:18;;;;;;;8.40;3.20;;;;;;;24.42;40.16;100553.11;124437;1104;102775;-80
2022/06/06 13:48:27;;;;;;;6.87;3.10;;;;;;;24.40;40.55;100557.60;124276;1102;102891;-79